createdAt,value
2023-03-24T00:00:01.893Z,14.77
2023-03-24T00:02:28.615Z,14.70
2023-03-24T00:04:58.568Z,15.06
2023-03-24T00:07:25.785Z,15.29
2023-03-24T00:09:53.867Z,15.69
2023-03-24T00:12:20.369Z,15.28
2023-03-24T00:14:46.914Z,15.24
2023-03-24T00:17:17.577Z,15.54
2023-03-24T00:19:45.244Z,15.70
2023-03-24T00:22:18.252Z,15.38
2023-03-24T00:24:46.315Z,15.33
2023-03-24T00:27:13.845Z,15.72
2023-03-24T00:29:41.447Z,15.61
2023-03-24T00:32:08.335Z,15.83
2023-03-24T00:34:38.346Z,15.70
2023-03-24T00:37:06.491Z,15.52
2023-03-24T00:39:33.470Z,15.32
2023-03-24T00:42:01.716Z,15.30
2023-03-24T00:44:28.315Z,15.46
2023-03-24T00:46:58.027Z,15.62
2023-03-24T00:49:44.829Z,15.45
2023-03-24T00:52:20.648Z,15.70
2023-03-24T00:54:49.082Z,15.65
2023-03-24T00:57:23.464Z,15.11
2023-03-24T00:59:50.923Z,15.60
2023-03-24T01:02:24.672Z,15.44
2023-03-24T01:04:56.403Z,15.42
2023-03-24T01:07:24.951Z,15.32
2023-03-24T01:09:57.520Z,15.59
2023-03-24T01:12:36.899Z,15.53
2023-03-24T01:15:09.376Z,15.81
2023-03-24T01:17:35.930Z,15.75
2023-03-24T01:20:08.152Z,15.30
2023-03-24T01:22:39.954Z,15.43
2023-03-24T01:25:09.392Z,15.02
2023-03-24T01:27:37.391Z,15.19
2023-03-24T01:30:07.199Z,15.36
2023-03-24T01:32:33.982Z,15.52
2023-03-24T01:35:00.943Z,15.48
2023-03-24T01:37:27.441Z,15.55
2023-03-24T01:39:54.003Z,15.49
2023-03-24T01:42:23.175Z,15.41
2023-03-24T01:44:51.825Z,15.56
2023-03-24T01:47:18.480Z,15.31
2023-03-24T01:49:47.022Z,15.13
2023-03-24T01:52:23.904Z,15.30
2023-03-24T01:54:54.254Z,15.50
2023-03-24T01:57:28.312Z,15.60
2023-03-24T01:59:59.009Z,15.35
2023-03-24T02:02:27.368Z,15.52
2023-03-24T02:05:01.062Z,15.28
2023-03-24T02:07:36.512Z,15.16
2023-03-24T02:10:07.290Z,15.44
2023-03-24T02:12:33.879Z,15.47
2023-03-24T02:15:01.516Z,15.12
2023-03-24T02:18:07.896Z,15.62
2023-03-24T02:20:49.530Z,15.72
2023-03-24T02:23:49.711Z,15.77
2023-03-24T02:26:55.943Z,16.10
2023-03-24T02:29:43.019Z,15.57
2023-03-24T02:32:36.535Z,15.75
2023-03-24T02:35:42.301Z,15.74
2023-03-24T02:38:09.396Z,15.78
2023-03-24T02:41:01.276Z,15.54
2023-03-24T02:43:40.521Z,15.89
2023-03-24T02:46:13.592Z,15.78
2023-03-24T02:49:00.940Z,15.54
2023-03-24T02:51:34.610Z,15.95
2023-03-24T02:54:17.183Z,15.71
2023-03-24T02:56:59.858Z,15.73
2023-03-24T02:59:40.946Z,15.26
2023-03-24T03:02:12.996Z,15.73
2023-03-24T03:04:49.860Z,15.97
2023-03-24T03:07:21.866Z,15.60
2023-03-24T03:09:55.954Z,15.89
2023-03-24T03:12:26.331Z,16.01
2023-03-24T03:14:59.913Z,15.76
2023-03-24T03:17:33.129Z,15.96
2023-03-24T03:20:09.133Z,15.84
2023-03-24T03:23:00.901Z,16.03
2023-03-24T03:25:33.158Z,15.63
2023-03-24T03:28:03.604Z,15.94
2023-03-24T03:30:37.577Z,15.74
2023-03-24T03:33:12.765Z,15.47
2023-03-24T03:35:46.063Z,16.02
2023-03-24T03:38:24.949Z,15.87
2023-03-24T03:40:55.777Z,16.18
2023-03-24T03:43:23.878Z,16.22
2023-03-24T03:45:50.497Z,16.21
2023-03-24T03:48:17.977Z,16.14
2023-03-24T03:50:45.322Z,15.85
2023-03-24T03:53:16.115Z,15.95
2023-03-24T03:55:43.324Z,16.03
2023-03-24T03:58:10.281Z,15.45
2023-03-24T04:00:37.409Z,15.84
2023-03-24T04:03:19.179Z,15.66
2023-03-24T04:06:16.408Z,15.61
2023-03-24T04:09:01.357Z,16.19
2023-03-24T04:12:01.017Z,15.98
2023-03-24T04:14:33.318Z,15.93
2023-03-24T04:17:13.902Z,15.66
2023-03-24T04:19:46.396Z,16.16
2023-03-24T04:22:38.362Z,15.77
2023-03-24T04:25:37.813Z,15.94
2023-03-24T04:28:26.488Z,15.93
2023-03-24T04:30:56.546Z,15.40
2023-03-24T04:33:50.296Z,15.27
2023-03-24T04:37:04.044Z,15.46
2023-03-24T04:39:38.693Z,15.98
2023-03-24T04:42:10.289Z,15.68
2023-03-24T04:44:36.793Z,15.87
2023-03-24T04:47:05.522Z,15.82
2023-03-24T04:49:32.566Z,15.78
2023-03-24T04:54:34.342Z,16.09
2023-03-24T04:57:02.114Z,16.16
2023-03-24T04:59:29.901Z,15.90
2023-03-24T05:01:56.630Z,15.74
2023-03-24T05:04:25.800Z,16.13
2023-03-24T05:06:52.323Z,15.88
2023-03-24T05:09:24.950Z,15.74
2023-03-24T05:11:52.073Z,15.57
2023-03-24T05:14:18.939Z,15.82
2023-03-24T05:16:45.646Z,16.09
2023-03-24T05:19:12.298Z,16.13
2023-03-24T05:21:38.753Z,15.99
2023-03-24T05:24:05.626Z,15.93
2023-03-24T05:26:33.313Z,15.79
2023-03-24T05:29:00.219Z,15.60
2023-03-24T05:31:26.739Z,15.37
2023-03-24T05:33:53.229Z,15.49
2023-03-24T05:36:19.757Z,15.77
2023-03-24T05:38:46.217Z,16.05
2023-03-24T05:41:12.669Z,16.22
2023-03-24T05:43:39.135Z,16.05
2023-03-24T05:46:05.882Z,16.19
2023-03-24T05:48:32.310Z,16.16
2023-03-24T05:50:58.744Z,16.07
2023-03-24T05:53:25.313Z,15.96
2023-03-24T05:55:53.673Z,16.28
2023-03-24T05:58:21.466Z,16.09
2023-03-24T06:00:48.332Z,15.68
2023-03-24T06:03:17.280Z,15.64
2023-03-24T06:05:45.720Z,15.95
2023-03-24T06:08:12.567Z,16.15
2023-03-24T06:10:38.991Z,16.37
2023-03-24T06:13:05.480Z,16.20
2023-03-24T06:15:31.939Z,16.39
2023-03-24T06:17:58.396Z,16.29
2023-03-24T06:20:24.853Z,16.29
2023-03-24T06:22:51.255Z,15.90
2023-03-24T06:25:20.670Z,16.20
2023-03-24T06:27:47.339Z,15.61
2023-03-24T06:30:17.770Z,15.99
2023-03-24T06:32:47.736Z,16.37
2023-03-24T06:35:15.276Z,16.76
2023-03-24T06:37:41.818Z,16.01
2023-03-24T06:40:11.061Z,16.39
2023-03-24T06:42:37.566Z,15.74
2023-03-24T06:45:05.303Z,16.43
2023-03-24T06:47:31.776Z,15.99
2023-03-24T06:49:58.211Z,15.84
2023-03-24T06:52:24.817Z,16.13
2023-03-24T06:54:51.219Z,15.98
2023-03-24T06:57:17.934Z,16.63
2023-03-24T06:59:44.766Z,16.26
2023-03-24T07:02:12.662Z,16.20
2023-03-24T07:04:39.141Z,16.13
2023-03-24T07:07:34.198Z,16.31
2023-03-24T07:09:52.133Z,16.20
2023-03-24T07:12:18.593Z,15.81
2023-03-24T07:14:45.117Z,16.11
2023-03-24T07:17:11.586Z,16.48
2023-03-24T07:19:38.025Z,15.84
2023-03-24T07:22:04.495Z,15.82
2023-03-24T07:24:31.904Z,16.13
2023-03-24T07:26:58.534Z,15.93
2023-03-24T07:29:25.257Z,16.22
2023-03-24T07:31:53.185Z,16.30
2023-03-24T07:34:20.602Z,15.55
2023-03-24T07:36:47.091Z,16.34
2023-03-24T07:39:13.502Z,16.44
2023-03-24T07:41:39.963Z,15.94
2023-03-24T07:44:06.521Z,16.27
2023-03-24T07:46:32.946Z,16.59
2023-03-24T07:49:05.742Z,16.35
2023-03-24T07:51:41.065Z,16.52
2023-03-24T07:54:08.759Z,16.56
2023-03-24T07:56:35.360Z,16.63
2023-03-24T07:59:01.949Z,16.35
2023-03-24T08:01:28.837Z,16.12
2023-03-24T08:03:56.170Z,16.23
2023-03-24T08:06:22.892Z,16.35
2023-03-24T08:08:49.314Z,16.41
2023-03-24T08:11:16.315Z,16.43
2023-03-24T08:13:42.832Z,16.47
2023-03-24T08:16:09.553Z,16.14
2023-03-24T08:18:36.114Z,16.00
2023-03-24T08:21:02.617Z,16.13
2023-03-24T08:23:29.418Z,16.92
2023-03-24T08:25:55.935Z,16.35
2023-03-24T08:28:22.385Z,16.69
2023-03-24T08:30:49.011Z,16.08
2023-03-24T08:33:16.918Z,16.68
2023-03-24T08:35:45.848Z,17.19
2023-03-24T08:38:15.576Z,16.73
2023-03-24T08:40:43.574Z,16.46
2023-03-24T08:43:15.461Z,16.45
2023-03-24T08:45:42.084Z,16.39
2023-03-24T08:48:09.402Z,16.28
2023-03-24T08:50:39.030Z,16.29
2023-03-24T08:53:06.132Z,16.66
2023-03-24T08:55:33.059Z,15.71
2023-03-24T08:58:00.197Z,15.55
2023-03-24T09:00:26.794Z,15.67
2023-03-24T09:02:54.895Z,16.50
2023-03-24T09:05:36.641Z,16.61
2023-03-24T09:08:10.575Z,17.17
2023-03-24T09:10:37.026Z,17.45
2023-03-24T09:13:04.505Z,17.30
2023-03-24T09:15:31.637Z,17.68
2023-03-24T09:17:58.109Z,17.58
2023-03-24T09:20:24.810Z,17.72
2023-03-24T09:22:51.456Z,17.30
2023-03-24T09:25:20.761Z,16.89
2023-03-24T09:27:48.092Z,16.77
2023-03-24T09:30:16.952Z,17.57
2023-03-24T09:32:44.936Z,17.89
2023-03-24T09:35:11.775Z,17.81
2023-03-24T09:37:39.221Z,17.86
2023-03-24T09:40:08.577Z,18.15
2023-03-24T09:42:40.995Z,17.80
2023-03-24T09:45:18.283Z,17.52
2023-03-24T09:47:51.535Z,17.61
2023-03-24T09:50:23.807Z,16.79
2023-03-24T09:52:55.307Z,17.28
2023-03-24T09:55:25.568Z,17.25
2023-03-24T09:57:55.593Z,16.81
2023-03-24T10:00:24.024Z,16.56
2023-03-24T10:02:52.962Z,16.05
2023-03-24T10:05:34.318Z,17.15
2023-03-24T10:08:14.344Z,16.28
2023-03-24T10:11:11.421Z,17.43
2023-03-24T10:13:52.366Z,17.09
2023-03-24T10:16:28.912Z,17.58
2023-03-24T10:19:10.487Z,16.65
2023-03-24T10:21:40.256Z,17.02
2023-03-24T10:24:27.858Z,17.74
2023-03-24T10:27:03.067Z,16.83
2023-03-24T10:29:38.355Z,16.95
2023-03-24T10:32:24.947Z,16.34
2023-03-24T10:34:56.648Z,16.50
2023-03-24T10:37:23.200Z,16.91
2023-03-24T10:39:51.520Z,16.51
2023-03-24T10:42:24.210Z,16.69
2023-03-24T10:44:52.235Z,17.15
2023-03-24T10:47:27.237Z,16.68
2023-03-24T10:50:00.637Z,17.59
2023-03-24T10:52:28.105Z,18.12
2023-03-24T10:54:57.455Z,16.70
2023-03-24T10:57:25.401Z,17.20
2023-03-24T10:59:59.608Z,16.79
2023-03-24T11:02:33.034Z,17.47
2023-03-24T11:05:15.494Z,17.10
2023-03-24T11:07:44.462Z,17.11
2023-03-24T11:10:10.808Z,17.19
2023-03-24T11:12:40.105Z,16.84
2023-03-24T11:15:33.736Z,16.62
2023-03-24T11:18:21.052Z,17.41
2023-03-24T11:20:53.703Z,17.22
2023-03-24T11:23:26.548Z,16.92
2023-03-24T11:26:15.009Z,17.51
2023-03-24T11:28:54.829Z,17.06
2023-03-24T11:31:40.360Z,17.21
2023-03-24T11:34:19.950Z,17.39
2023-03-24T11:37:00.334Z,18.16
2023-03-24T11:39:29.509Z,17.16
2023-03-24T11:42:03.409Z,17.70
2023-03-24T11:44:44.189Z,16.69
2023-03-24T11:47:24.063Z,17.04
2023-03-24T11:50:10.922Z,16.85
2023-03-24T11:52:40.428Z,17.37
2023-03-24T11:55:28.884Z,17.62
2023-03-24T11:58:03.517Z,17.39
2023-03-24T12:00:35.272Z,17.07
2023-03-24T12:03:11.524Z,18.23
2023-03-24T12:05:48.166Z,18.69
2023-03-24T12:08:18.791Z,18.61
2023-03-24T12:10:48.400Z,19.06
2023-03-24T12:13:54.109Z,17.59
2023-03-24T12:16:26.520Z,17.35
2023-03-24T12:19:26.734Z,16.94
2023-03-24T12:21:53.097Z,17.49
2023-03-24T12:24:44.296Z,16.81
2023-03-24T12:27:42.911Z,18.22
2023-03-24T12:30:25.778Z,17.16
2023-03-24T12:33:23.520Z,17.18
2023-03-24T12:35:55.993Z,17.34
2023-03-24T12:38:41.014Z,17.73
2023-03-24T12:41:24.861Z,17.45
2023-03-24T12:44:06.523Z,17.10
2023-03-24T12:46:52.498Z,18.16
2023-03-24T12:49:38.964Z,18.30
2023-03-24T12:52:20.360Z,17.95
2023-03-24T12:55:04.562Z,18.12
2023-03-24T12:57:57.857Z,17.29
2023-03-24T13:00:31.130Z,16.77
2023-03-24T13:03:15.395Z,17.07
2023-03-24T13:05:48.558Z,17.72
2023-03-24T13:08:22.954Z,17.74
2023-03-24T13:10:54.034Z,16.92
2023-03-24T13:13:23.418Z,17.58
2023-03-24T13:15:58.369Z,17.14
2023-03-24T13:18:48.303Z,17.83
2023-03-24T13:21:24.614Z,17.62
2023-03-24T13:24:15.387Z,17.52
2023-03-24T13:26:58.166Z,16.60
2023-03-24T13:29:49.770Z,17.30
2023-03-24T13:32:16.391Z,17.21
2023-03-24T13:34:56.794Z,17.93
2023-03-24T13:37:35.645Z,17.35
2023-03-24T13:40:10.980Z,17.97
2023-03-24T13:42:47.971Z,16.91
2023-03-24T13:45:33.348Z,17.75
2023-03-24T13:48:18.218Z,16.88
2023-03-24T13:50:56.501Z,17.43
2023-03-24T13:53:33.496Z,17.34
2023-03-24T13:56:01.652Z,17.72
2023-03-24T13:59:04.453Z,17.93
2023-03-24T14:01:45.504Z,17.46
2023-03-24T14:04:26.396Z,17.45
2023-03-24T14:06:57.490Z,17.49
2023-03-24T14:09:31.206Z,17.62
2023-03-24T14:12:08.527Z,17.28
2023-03-24T14:14:56.032Z,18.23
2023-03-24T14:17:22.639Z,17.60
2023-03-24T14:19:58.068Z,17.82
2023-03-24T14:22:27.634Z,17.72
2023-03-24T14:24:59.816Z,17.88
2023-03-24T14:27:38.051Z,17.27
2023-03-24T14:30:11.047Z,18.17
2023-03-24T14:32:45.025Z,17.41
2023-03-24T14:35:39.404Z,17.94
2023-03-24T14:38:22.262Z,17.31
2023-03-24T14:40:52.223Z,18.58
2023-03-24T14:43:29.495Z,18.24
2023-03-24T14:46:02.192Z,18.64
2023-03-24T14:48:33.442Z,19.04
2023-03-24T14:51:25.239Z,18.39
2023-03-24T14:53:56.768Z,18.54
2023-03-24T14:56:24.197Z,17.14
2023-03-24T14:58:56.398Z,18.36
2023-03-24T15:01:26.896Z,18.12
2023-03-24T15:04:06.844Z,17.73
2023-03-24T15:06:43.862Z,17.39
2023-03-24T15:09:10.796Z,17.34
2023-03-24T15:11:40.331Z,18.09
2023-03-24T15:14:18.491Z,17.30
2023-03-24T15:16:53.706Z,17.89
2023-03-24T15:19:26.762Z,17.87
2023-03-24T15:22:20.212Z,17.39
2023-03-24T15:24:48.703Z,18.00
2023-03-24T15:27:26.469Z,17.93
2023-03-24T15:29:59.009Z,17.82
2023-03-24T15:32:31.802Z,17.84
2023-03-24T15:35:05.437Z,17.67
2023-03-24T15:37:40.566Z,17.88
2023-03-24T15:40:29.588Z,17.25
2023-03-24T15:42:59.163Z,17.35
2023-03-24T15:45:37.793Z,16.95
2023-03-24T15:48:08.931Z,17.30
2023-03-24T15:50:38.500Z,16.74
2023-03-24T15:53:13.745Z,16.98
2023-03-24T15:55:43.374Z,17.09
2023-03-24T15:58:31.928Z,16.65
2023-03-24T16:01:02.364Z,17.03
2023-03-24T16:03:30.734Z,16.66
2023-03-24T16:05:57.546Z,16.33
2023-03-24T16:08:35.639Z,16.74
2023-03-24T16:11:10.822Z,17.26
2023-03-24T16:13:43.252Z,16.64
2023-03-24T16:16:15.935Z,17.35
2023-03-24T16:18:47.153Z,17.36
2023-03-24T16:21:19.720Z,17.10
2023-03-24T16:23:47.417Z,16.27
2023-03-24T16:26:28.024Z,16.98
2023-03-24T16:28:56.971Z,16.42
2023-03-24T16:31:26.688Z,16.21
2023-03-24T16:33:55.309Z,16.03
2023-03-24T16:36:26.572Z,16.07
2023-03-24T16:38:58.006Z,16.34
2023-03-24T16:41:25.254Z,16.16
2023-03-24T16:43:53.035Z,16.53
2023-03-24T16:46:26.569Z,16.68
2023-03-24T16:48:53.559Z,16.55
2023-03-24T16:51:20.068Z,16.71
2023-03-24T16:53:46.912Z,16.63
2023-03-24T16:56:18.975Z,16.07
2023-03-24T16:58:47.986Z,16.35
2023-03-24T17:01:26.385Z,16.45
2023-03-24T17:03:58.409Z,16.64
2023-03-24T17:06:26.113Z,16.78
2023-03-24T17:08:52.637Z,16.28
2023-03-24T17:11:30.412Z,16.10
2023-03-24T17:14:01.944Z,16.34
2023-03-24T17:16:29.645Z,15.13
2023-03-24T17:18:56.237Z,16.61
2023-03-24T17:21:23.477Z,15.51
2023-03-24T17:23:50.432Z,14.00
2023-03-24T17:26:16.896Z,14.26
2023-03-24T17:28:43.860Z,13.45
2023-03-24T17:31:10.387Z,13.85
2023-03-24T17:33:36.899Z,12.95
2023-03-24T17:36:03.498Z,12.47
2023-03-24T17:38:29.970Z,12.35
2023-03-24T17:41:01.485Z,12.24
2023-03-24T17:43:28.021Z,12.29
2023-03-24T17:45:58.832Z,12.09
2023-03-24T17:48:26.008Z,11.46
2023-03-24T17:50:53.253Z,12.15
2023-03-24T17:53:28.500Z,12.50
2023-03-24T17:55:57.450Z,12.65
2023-03-24T17:58:26.891Z,13.08
2023-03-24T18:00:54.200Z,12.98
2023-03-24T18:03:21.610Z,12.78
2023-03-24T18:05:48.496Z,13.16
2023-03-24T18:08:15.077Z,13.23
2023-03-24T18:10:41.509Z,12.93
2023-03-24T18:13:07.999Z,13.21
2023-03-24T18:15:34.932Z,13.39
2023-03-24T18:18:02.077Z,13.49
2023-03-24T18:20:28.888Z,13.50
2023-03-24T18:22:55.477Z,13.38
2023-03-24T18:25:21.993Z,12.86
2023-03-24T18:27:48.499Z,13.36
2023-03-24T18:30:16.811Z,13.43
2023-03-24T18:32:43.795Z,13.42
2023-03-24T18:35:16.174Z,13.28
2023-03-24T18:37:43.496Z,13.13
2023-03-24T18:40:10.625Z,13.22
2023-03-24T18:42:37.712Z,13.19
2023-03-24T18:45:06.303Z,13.03
2023-03-24T18:47:32.729Z,13.29
2023-03-24T18:49:59.252Z,12.87
2023-03-24T18:52:26.253Z,13.06
2023-03-24T18:54:54.144Z,13.05
2023-03-24T18:57:21.298Z,13.11
2023-03-24T18:59:47.762Z,13.25
2023-03-24T19:02:15.571Z,13.28
2023-03-24T19:04:43.159Z,13.31
2023-03-24T19:07:14.322Z,13.22
2023-03-24T19:09:44.246Z,13.34
2023-03-24T19:12:10.707Z,13.16
2023-03-24T19:14:37.142Z,13.06
2023-03-24T19:17:03.609Z,13.06
2023-03-24T19:19:31.477Z,13.17
2023-03-24T19:21:58.736Z,13.07
2023-03-24T19:24:26.214Z,12.95
2023-03-24T19:26:53.416Z,13.15
2023-03-24T19:29:20.988Z,13.05
2023-03-24T19:31:48.233Z,12.90
2023-03-24T19:34:14.736Z,12.84
2023-03-24T19:36:44.374Z,13.04
2023-03-24T19:39:14.696Z,13.04
2023-03-24T19:41:41.385Z,12.89
2023-03-24T19:44:08.153Z,13.03
2023-03-24T19:46:34.668Z,13.09
2023-03-24T19:49:01.294Z,13.04
2023-03-24T19:51:27.723Z,13.11
2023-03-24T19:53:54.253Z,13.29
2023-03-24T19:56:21.747Z,13.21
2023-03-24T19:58:48.433Z,13.20
2023-03-24T20:01:14.930Z,12.71
2023-03-24T20:03:41.578Z,12.90
2023-03-24T20:06:11.546Z,13.22
2023-03-24T20:08:38.612Z,12.40
2023-03-24T20:11:10.396Z,12.81
2023-03-24T20:13:37.007Z,13.32
2023-03-24T20:16:04.134Z,12.46
2023-03-24T20:18:30.722Z,12.70
2023-03-24T20:20:57.225Z,12.83
2023-03-24T20:23:23.691Z,12.85
2023-03-24T20:25:50.582Z,12.82
2023-03-24T20:28:18.671Z,12.74
2023-03-24T20:30:45.987Z,12.91
2023-03-24T20:33:13.237Z,13.17
2023-03-24T20:35:39.874Z,12.52
2023-03-24T20:38:06.447Z,12.55
2023-03-24T20:40:32.937Z,12.33
2023-03-24T20:42:59.411Z,12.49
2023-03-24T20:45:26.646Z,12.99
2023-03-24T20:47:53.336Z,13.05
2023-03-24T20:50:20.034Z,13.24
2023-03-24T20:52:47.349Z,13.14
2023-03-24T20:55:14.616Z,13.19
2023-03-24T20:57:41.451Z,12.98
2023-03-24T21:00:13.495Z,12.97
2023-03-24T21:02:42.188Z,12.92
2023-03-24T21:05:09.274Z,12.90
2023-03-24T21:07:38.053Z,12.93
2023-03-24T21:10:06.390Z,12.94
2023-03-24T21:12:33.568Z,12.56
2023-03-24T21:15:00.374Z,12.34
2023-03-24T21:17:32.003Z,12.88
2023-03-24T21:20:13.075Z,12.77
2023-03-24T21:22:56.126Z,12.94
2023-03-24T21:25:23.978Z,12.82
2023-03-24T21:27:50.867Z,12.58
2023-03-24T21:30:20.759Z,12.68
2023-03-24T21:32:48.788Z,12.82
2023-03-24T21:35:16.841Z,12.76
2023-03-24T21:37:47.194Z,12.19
2023-03-24T21:40:13.710Z,11.72
2023-03-24T21:42:43.269Z,12.28
2023-03-24T21:45:15.339Z,12.04
2023-03-24T21:47:42.705Z,12.31
2023-03-24T21:50:09.783Z,11.55
2023-03-24T21:52:39.023Z,12.17
2023-03-24T21:55:06.414Z,12.69
2023-03-24T21:57:32.808Z,12.75
2023-03-24T22:00:00.305Z,12.93
2023-03-24T22:02:27.650Z,12.90
2023-03-24T22:04:54.815Z,11.96
2023-03-24T22:07:22.481Z,12.52
2023-03-24T22:09:50.639Z,12.63
2023-03-24T22:12:17.229Z,12.74
2023-03-24T22:14:43.683Z,12.26
2023-03-24T22:17:10.496Z,12.43
2023-03-24T22:19:38.059Z,11.68
2023-03-24T22:22:04.504Z,12.49
2023-03-24T22:24:30.973Z,12.73
2023-03-24T22:27:00.033Z,12.47
2023-03-24T22:29:26.732Z,12.68
2023-03-24T22:31:53.260Z,12.47
2023-03-24T22:34:19.740Z,12.66
2023-03-24T22:36:46.164Z,12.60
2023-03-24T22:39:12.708Z,12.38
2023-03-24T22:41:39.247Z,12.69
2023-03-24T22:44:06.026Z,12.48
2023-03-24T22:46:32.486Z,12.30
2023-03-24T22:48:58.981Z,12.50
2023-03-24T22:51:25.446Z,12.28
2023-03-24T22:53:52.204Z,12.83
2023-03-24T22:56:18.698Z,12.82
2023-03-24T22:58:45.123Z,13.02
2023-03-24T23:01:11.570Z,12.96
2023-03-24T23:03:38.082Z,13.00
2023-03-24T23:06:04.666Z,12.89
2023-03-24T23:08:32.689Z,12.90
2023-03-24T23:11:00.280Z,12.98
2023-03-24T23:13:27.042Z,13.02
2023-03-24T23:15:53.660Z,12.94
2023-03-24T23:18:21.082Z,13.04
2023-03-24T23:20:47.861Z,12.82
2023-03-24T23:23:15.219Z,12.94
2023-03-24T23:25:45.677Z,12.98
2023-03-24T23:28:13.180Z,13.08
2023-03-24T23:30:40.662Z,12.59
2023-03-24T23:33:07.232Z,12.97
2023-03-24T23:35:33.885Z,13.09
2023-03-24T23:38:02.251Z,12.60
2023-03-24T23:40:28.745Z,13.00
2023-03-24T23:42:55.158Z,12.91
2023-03-24T23:45:21.592Z,12.94
2023-03-24T23:47:50.731Z,13.03
2023-03-24T23:50:18.793Z,13.37
2023-03-24T23:52:45.364Z,13.38
2023-03-24T23:55:13.367Z,13.64
2023-03-24T23:57:42.137Z,13.60
